Time;durP1;ratioP1;P1;durP2;ratioP2;P2;SDS_P1;SDS_P2;PMS_P1;PMS_P2;Temp;Humidity;BMP_temperature;BMP_pressure;BME280_temperature;BME280_humidity;BME280_pressure;Samples;Min_cycle;Max_cycle;Signal;HPM_P1;HPM_P2
2021/12/22 00:01:48;;;;;;;35.92;20.42;;;;;;;1.72;82.34;101838.16;5024380;28;20037;-75
2021/12/22 00:04:13;;;;;;;37.20;21.58;;;;;;;1.69;82.33;101840.63;5021514;28;20038;-75
2021/12/22 00:06:39;;;;;;;39.00;23.58;;;;;;;1.74;82.18;101839.13;5021890;28;20539;-75
2021/12/22 00:09:05;;;;;;;36.35;19.40;;;;;;;1.81;82.11;101845.53;5023043;28;20552;-75
2021/12/22 00:11:31;;;;;;;43.63;24.27;;;;;;;1.80;82.07;101848.97;5022457;28;20116;-75
2021/12/22 00:13:56;;;;;;;40.90;22.50;;;;;;;1.80;82.17;101843.75;5022498;28;20112;-75
2021/12/22 00:16:21;;;;;;;40.60;22.90;;;;;;;1.75;82.31;101840.91;5022758;28;20450;-75
2021/12/22 00:18:47;;;;;;;36.85;21.85;;;;;;;1.67;82.23;101837.03;5019830;28;20047;-75
2021/12/22 00:21:14;;;;;;;38.70;23.70;;;;;;;1.60;82.31;101841.06;5022208;28;20037;-75
2021/12/22 00:23:39;;;;;;;45.53;25.40;;;;;;;1.65;82.22;101839.56;5019014;28;20114;-75
2021/12/22 00:26:05;;;;;;;35.10;21.60;;;;;;;1.63;82.28;101845.53;5021481;28;20030;-75
2021/12/22 00:28:32;;;;;;;42.15;23.33;;;;;;;1.62;83.06;101839.41;5020874;28;20029;-75
2021/12/22 00:30:59;;;;;;;39.22;22.13;;;;;;;1.66;83.00;101843.94;5021308;28;20393;-75
2021/12/22 00:33:27;;;;;;;36.75;22.42;;;;;;;1.70;82.41;101845.00;5021264;28;20049;-75
2021/12/22 00:35:52;;;;;;;37.00;21.80;;;;;;;1.71;82.76;101844.19;5020599;28;20100;-75
2021/12/22 00:38:21;;;;;;;43.20;24.80;;;;;;;1.67;82.27;101840.53;5022679;28;20078;-74
2021/12/22 00:40:47;;;;;;;47.60;25.38;;;;;;;1.69;82.36;101851.03;5024895;28;20034;-75
2021/12/22 00:43:13;;;;;;;46.00;26.23;;;;;;;1.60;82.51;101858.34;5028429;28;20119;-75
2021/12/22 00:45:40;;;;;;;43.92;24.48;;;;;;;1.60;82.94;101850.53;5026932;28;20045;-75
2021/12/22 00:48:09;;;;;;;40.28;24.40;;;;;;;1.65;83.34;101855.19;5023822;28;20124;-75
2021/12/22 00:50:36;;;;;;;43.97;24.92;;;;;;;1.72;83.04;101852.06;5026045;28;20055;-74
2021/12/22 00:53:02;;;;;;;38.22;23.58;;;;;;;1.82;82.74;101853.44;5023179;28;20044;-75
2021/12/22 00:55:28;;;;;;;45.55;25.60;;;;;;;1.81;82.12;101851.66;5026163;28;20565;-75
2021/12/22 00:57:53;;;;;;;40.08;22.20;;;;;;;1.82;82.35;101853.44;5001684;28;20061;-75
2021/12/22 01:00:21;;;;;;;41.97;24.42;;;;;;;1.83;82.41;101849.13;5029420;28;20117;-75
2021/12/22 01:02:47;;;;;;;40.13;24.73;;;;;;;1.83;82.37;101851.72;5026148;28;20055;-75
2021/12/22 01:05:15;;;;;;;45.15;25.20;;;;;;;1.83;82.00;101849.13;5022986;28;20053;-75
2021/12/22 01:07:42;;;;;;;37.33;23.27;;;;;;;1.84;81.71;101843.09;5025489;28;20495;-75
2021/12/22 01:10:09;;;;;;;41.47;24.83;;;;;;;1.72;82.07;101857.28;5023322;28;20492;-75
2021/12/22 01:12:35;;;;;;;43.50;24.55;;;;;;;1.64;81.68;101852.50;5040264;28;20041;-75
2021/12/22 01:15:00;;;;;;;47.72;24.70;;;;;;;1.57;82.05;101848.69;5027285;28;20037;-74
2021/12/22 01:17:34;;;;;;;46.20;26.42;;;;;;;1.55;82.20;101858.13;5031599;28;20042;-75
2021/12/22 01:20:05;;;;;;;44.45;26.55;;;;;;;1.51;82.31;101851.84;5023346;28;20899;-75
2021/12/22 01:22:46;;;;;;;46.88;23.77;;;;;;;1.49;82.59;101855.19;5040778;28;20041;-75
2021/12/22 01:25:14;;;;;;;48.00;27.33;;;;;;;1.42;82.53;101859.19;5022653;28;20041;-75
2021/12/22 01:27:42;;;;;;;54.28;29.35;;;;;;;1.39;82.74;101855.53;5024989;28;20095;-75
2021/12/22 01:30:43;;;;;;;40.17;25.15;;;;;;;1.44;82.82;101859.25;5022967;28;20180;-75
2021/12/22 01:33:09;;;;;;;46.58;25.23;;;;;;;1.41;83.06;101859.09;5022469;28;20049;-74
2021/12/22 01:35:35;;;;;;;48.47;25.75;;;;;;;1.44;83.38;101854.97;5024587;28;20029;-75
2021/12/22 01:38:02;;;;;;;45.78;25.67;;;;;;;1.48;82.89;101853.41;5022610;28;20037;-75
2021/12/22 01:40:28;;;;;;;43.85;24.48;;;;;;;1.45;83.02;101859.34;5025261;28;20036;-75
2021/12/22 01:42:57;;;;;;;45.70;25.63;;;;;;;1.38;82.78;101857.25;5022132;28;20049;-75
2021/12/22 01:51:24;;;;;;;42.20;24.65;;;;;;;1.34;83.20;101857.00;5025862;28;20037;-74
2021/12/22 01:53:50;;;;;;;45.78;25.33;;;;;;;1.39;83.49;101855.53;5024706;28;20049;-74
2021/12/22 01:56:26;;;;;;;48.25;26.35;;;;;;;1.39;83.61;101858.13;5021853;28;20040;-75
2021/12/22 01:58:54;;;;;;;48.17;24.88;;;;;;;1.31;83.13;101861.25;5027914;28;20076;-75
2021/12/22 02:01:20;;;;;;;44.78;25.45;;;;;;;1.30;83.45;101850.75;5024559;28;20038;-75
2021/12/22 02:03:47;;;;;;;38.72;23.38;;;;;;;1.34;84.12;101851.78;5023905;28;20045;-75
2021/12/22 02:06:14;;;;;;;44.85;24.13;;;;;;;1.40;83.46;101858.22;5025947;28;20069;-75
2021/12/22 02:08:40;;;;;;;44.50;23.60;;;;;;;1.37;83.53;101865.88;5024969;28;20078;-75
2021/12/22 02:11:07;;;;;;;48.92;26.10;;;;;;;1.24;83.90;101861.72;5021891;28;20469;-75
2021/12/22 02:13:37;;;;;;;47.60;26.67;;;;;;;1.27;84.62;101859.28;5023522;28;20047;-75
2021/12/22 02:16:07;;;;;;;44.22;24.10;;;;;;;1.30;84.12;101854.25;5027820;28;20400;-75
2021/12/22 02:18:35;;;;;;;40.45;23.63;;;;;;;1.20;84.13;101862.38;5017419;28;20120;-75
2021/12/22 02:21:01;;;;;;;41.30;23.63;;;;;;;1.20;84.68;101856.28;5022067;28;20140;-75
2021/12/22 02:23:26;;;;;;;38.28;23.08;;;;;;;1.25;84.61;101857.41;5024496;28;20195;-75
2021/12/22 02:25:57;;;;;;;42.53;24.45;;;;;;;1.36;84.49;101865.78;5020983;28;20034;-76
2021/12/22 02:28:27;;;;;;;44.08;24.10;;;;;;;1.45;84.44;101854.16;5027263;28;20029;-75
2021/12/22 02:30:53;;;;;;;42.47;24.40;;;;;;;1.48;83.99;101856.91;5024065;28;20095;-76
2021/12/22 02:33:22;;;;;;;43.60;25.58;;;;;;;1.55;83.73;101855.53;5021401;28;20124;-75
2021/12/22 02:36:08;;;;;;;43.83;24.95;;;;;;;1.51;83.62;101851.84;5021342;28;20045;-76
2021/12/22 02:38:38;;;;;;;46.05;24.50;;;;;;;1.56;83.55;101853.81;5021627;28;20038;-75
2021/12/22 02:41:04;;;;;;;41.95;25.13;;;;;;;1.59;83.31;101860.06;5003009;28;20030;-76
2021/12/22 02:43:33;;;;;;;45.88;25.67;;;;;;;1.59;83.21;101849.66;5023548;28;20057;-75
2021/12/22 02:46:00;;;;;;;45.75;24.63;;;;;;;1.52;83.13;101850.19;5021118;28;20046;-75
2021/12/22 02:48:32;;;;;;;45.35;25.25;;;;;;;1.48;83.31;101854.31;5023350;28;20040;-75
2021/12/22 02:51:01;;;;;;;53.85;27.85;;;;;;;1.38;84.17;101849.44;5021092;28;20160;-75
2021/12/22 02:54:01;;;;;;;52.65;27.52;;;;;;;1.40;83.86;101863.44;5024136;28;20052;-75
2021/12/22 02:56:35;;;;;;;44.13;24.45;;;;;;;1.28;83.14;101852.38;5022549;28;20033;-74
2021/12/22 02:59:15;;;;;;;45.13;25.52;;;;;;;1.13;83.96;101860.28;5020996;28;20045;-74
2021/12/22 03:02:07;;;;;;;43.25;23.38;;;;;;;1.05;83.64;101864.19;5020774;28;20037;-74
2021/12/22 03:04:31;;;;;;;40.80;23.42;;;;;;;0.97;84.30;101862.84;5020418;28;20038;-75
2021/12/22 03:07:04;;;;;;;55.00;28.05;;;;;;;0.90;84.29;101868.53;5023274;28;20037;-75
2021/12/22 03:09:32;;;;;;;42.70;24.70;;;;;;;0.88;84.14;101865.84;5021790;28;20077;-75
2021/12/22 03:12:00;;;;;;;41.80;22.48;;;;;;;0.81;84.28;101856.84;5021782;28;20038;-75
2021/12/22 03:14:26;;;;;;;45.55;24.67;;;;;;;0.73;84.40;101865.88;5021255;28;20037;-75
2021/12/22 03:16:52;;;;;;;45.15;24.67;;;;;;;0.61;84.92;101866.13;5021412;28;20056;-75
2021/12/22 03:19:22;;;;;;;54.17;29.00;;;;;;;0.55;85.18;101871.00;5020883;28;20030;-75
2021/12/22 03:21:51;;;;;;;40.33;23.17;;;;;;;0.52;85.47;101859.50;5022860;28;20043;-75
2021/12/22 03:24:19;;;;;;;51.53;25.87;;;;;;;0.38;85.38;101862.22;5021084;28;20042;-74
2021/12/22 03:26:45;;;;;;;50.30;26.77;;;;;;;0.35;85.75;101859.47;5021180;28;20116;-75
2021/12/22 03:29:13;;;;;;;44.17;25.67;;;;;;;0.37;85.31;101863.06;5020635;28;20527;-75
2021/12/22 03:31:40;;;;;;;50.37;27.10;;;;;;;0.35;85.60;101858.59;5022811;28;20045;-76
2021/12/22 03:34:06;;;;;;;43.17;24.17;;;;;;;0.35;85.46;101862.06;5020088;28;20068;-75
2021/12/22 03:36:32;;;;;;;40.67;22.93;;;;;;;0.39;85.74;101860.53;5005306;28;20377;-76
2021/12/22 03:38:58;;;;;;;46.70;25.00;;;;;;;0.42;85.77;101856.41;5015301;28;20029;-75
2021/12/22 03:41:23;;;;;;;49.53;26.77;;;;;;;0.40;85.05;101863.22;5019739;28;20041;-75
2021/12/22 03:43:48;;;;;;;48.57;24.93;;;;;;;0.37;85.70;101872.56;5022774;28;20049;-75
2021/12/22 03:46:14;;;;;;;45.73;24.83;;;;;;;0.36;85.93;101863.84;5023773;28;20061;-75
2021/12/22 03:48:40;;;;;;;52.53;25.07;;;;;;;0.37;86.35;101860.47;5020744;28;20075;-76
2021/12/22 03:51:05;;;;;;;47.00;25.13;;;;;;;0.38;85.75;101861.34;5021772;28;20038;-75
2021/12/22 03:53:31;;;;;;;49.23;27.53;;;;;;;0.41;86.36;101858.91;5021310;28;20653;-75
2021/12/22 03:55:56;;;;;;;49.47;25.93;;;;;;;0.37;85.37;101850.06;5016261;28;20088;-75
2021/12/22 03:58:22;;;;;;;47.53;24.53;;;;;;;0.37;85.34;101859.56;5020162;28;20049;-74
2021/12/22 04:00:50;;;;;;;47.87;24.50;;;;;;;0.37;85.35;101863.06;5022528;28;20403;-74
2021/12/22 04:03:19;;;;;;;46.00;24.70;;;;;;;0.35;86.00;101866.38;5015748;28;20123;-75
2021/12/22 04:05:46;;;;;;;41.93;22.60;;;;;;;0.41;85.58;101853.72;5025070;28;20495;-75
2021/12/22 04:08:13;;;;;;;43.30;22.30;;;;;;;0.44;85.61;101856.47;5021220;28;20516;-75
2021/12/22 04:10:39;;;;;;;42.13;23.10;;;;;;;0.40;85.30;101858.03;5022773;28;20041;-75
2021/12/22 04:13:04;;;;;;;43.07;22.63;;;;;;;0.43;85.34;101854.72;5025654;28;20091;-74
2021/12/22 04:15:29;;;;;;;40.20;21.93;;;;;;;0.39;85.50;101858.84;5033728;28;20032;-74
2021/12/22 04:17:55;;;;;;;44.47;23.97;;;;;;;0.36;85.72;101855.16;5032737;28;20653;-75
2021/12/22 04:20:21;;;;;;;46.23;24.40;;;;;;;0.33;85.34;101852.41;5029077;28;20041;-75
2021/12/22 04:22:47;;;;;;;47.77;24.67;;;;;;;0.30;85.37;101860.91;5026942;28;20040;-74
2021/12/22 04:25:20;;;;;;;53.57;28.17;;;;;;;0.29;85.81;101859.13;5027925;28;20129;-74
2021/12/22 04:27:46;;;;;;;42.63;22.90;;;;;;;0.25;84.88;101853.66;5026333;28;20559;-75
2021/12/22 04:30:11;;;;;;;46.33;23.77;;;;;;;0.14;84.82;101853.97;5040621;28;20497;-75
2021/12/22 04:32:37;;;;;;;44.80;24.07;;;;;;;0.05;85.22;101849.94;5027201;28;20048;-75
2021/12/22 04:35:02;;;;;;;45.43;24.73;;;;;;;-0.13;85.11;101850.69;5027308;28;20158;-76
2021/12/22 04:37:28;;;;;;;45.17;24.40;;;;;;;-0.29;85.35;101847.97;5027265;28;20116;-75
2021/12/22 04:39:53;;;;;;;41.60;23.33;;;;;;;-0.45;86.10;101852.28;5028293;28;20551;-75
2021/12/22 04:42:19;;;;;;;50.87;25.57;;;;;;;-0.59;86.71;101858.31;5026527;28;20107;-74
2021/12/22 04:44:44;;;;;;;45.13;21.67;;;;;;;-0.69;86.49;101853.38;5028649;28;20450;-75
2021/12/22 04:47:09;;;;;;;50.50;25.67;;;;;;;-0.80;86.79;101857.03;5021177;28;20117;-74
2021/12/22 04:49:35;;;;;;;49.60;25.30;;;;;;;-0.89;86.80;101853.06;5025794;28;20074;-74
2021/12/22 04:52:03;;;;;;;49.83;24.50;;;;;;;-0.98;87.20;101857.69;5028164;28;20069;-75
2021/12/22 04:56:55;;;;;;;42.10;21.37;;;;;;;-1.13;87.62;101851.53;5026806;28;20038;-74
2021/12/22 04:59:21;;;;;;;47.47;23.93;;;;;;;-1.22;87.76;101845.81;5028758;28;20167;-76
2021/12/22 05:01:46;;;;;;;50.87;25.17;;;;;;;-1.26;88.16;101849.00;5026846;28;20631;-75
2021/12/22 05:04:12;;;;;;;47.03;23.20;;;;;;;-1.31;88.59;101851.31;5031603;28;20121;-74
2021/12/22 05:06:37;;;;;;;40.33;21.20;;;;;;;-1.37;88.21;101854.38;5032354;28;20060;-75
2021/12/22 05:09:04;;;;;;;42.70;21.30;;;;;;;-1.48;88.58;101858.00;5027831;28;20080;-75
2021/12/22 05:11:29;;;;;;;49.67;24.63;;;;;;;-1.62;88.12;101851.06;5035381;28;20511;-75
2021/12/22 05:13:54;;;;;;;40.10;20.80;;;;;;;-1.69;88.78;101856.63;5036785;28;20034;-75
2021/12/22 05:16:20;;;;;;;46.60;22.83;;;;;;;-1.71;89.45;101860.81;5036548;28;20487;-76
2021/12/22 05:18:58;;;;;;;39.50;21.27;;;;;;;-1.74;89.25;101865.78;5036560;28;20400;-78
2021/12/22 05:21:25;;;;;;;37.77;20.93;;;;;;;-1.79;88.58;101866.38;5036475;28;20506;-78
2021/12/22 05:23:52;;;;;;;42.90;22.37;;;;;;;-1.86;88.10;101863.28;5036040;28;20439;-78
2021/12/22 05:26:18;;;;;;;45.00;22.63;;;;;;;-1.95;88.72;101863.59;5023785;28;20498;-78
2021/12/22 05:28:44;;;;;;;50.50;21.43;;;;;;;-2.01;88.31;101873.56;5029041;28;20037;-78
2021/12/22 05:31:09;;;;;;;50.87;22.93;;;;;;;-2.10;89.13;101867.75;5025233;28;20403;-78
2021/12/22 05:33:35;;;;;;;49.87;23.40;;;;;;;-2.13;89.20;101870.13;5024589;28;20044;-78
2021/12/22 05:36:00;;;;;;;40.67;21.03;;;;;;;-2.21;89.39;101865.34;5026831;28;20385;-78
2021/12/22 05:38:25;;;;;;;46.23;21.93;;;;;;;-2.21;89.80;101862.75;5034312;28;20033;-77
2021/12/22 05:40:51;;;;;;;42.00;21.03;;;;;;;-2.22;89.71;101863.56;5033973;28;20045;-77
2021/12/22 05:43:16;;;;;;;39.20;20.47;;;;;;;-2.29;88.79;101861.34;5032952;28;20033;-78
2021/12/22 05:45:41;;;;;;;41.90;20.13;;;;;;;-2.38;88.79;101860.75;5031909;28;20112;-78
2021/12/22 05:48:07;;;;;;;40.03;20.47;;;;;;;-2.36;89.66;101869.50;5030812;28;20044;-79
2021/12/22 05:50:32;;;;;;;43.97;20.70;;;;;;;-2.40;89.50;101862.34;5027539;28;20048;-77
2021/12/22 05:52:57;;;;;;;47.10;22.20;;;;;;;-2.40;89.56;101858.88;5026909;28;20396;-78
2021/12/22 05:55:23;;;;;;;52.50;21.70;;;;;;;-2.40;89.18;101857.16;5030031;28;20566;-78
2021/12/22 05:57:49;;;;;;;39.10;20.13;;;;;;;-2.41;89.83;101855.38;5030605;28;20522;-78
2021/12/22 06:00:14;;;;;;;35.17;18.70;;;;;;;-2.39;90.13;101855.47;5029448;28;20404;-78
2021/12/22 06:02:40;;;;;;;40.33;19.13;;;;;;;-2.39;90.05;101848.59;5030586;28;20029;-78
2021/12/22 06:05:06;;;;;;;38.40;18.53;;;;;;;-2.42;90.20;101848.41;5024468;28;20042;-78
2021/12/22 06:07:31;;;;;;;50.53;20.77;;;;;;;-2.53;89.06;101849.38;5020096;28;21031;-78
2021/12/22 06:09:56;;;;;;;37.67;18.90;;;;;;;-2.60;90.01;101852.34;5025283;28;20057;-78
2021/12/22 06:12:22;;;;;;;62.43;26.20;;;;;;;-2.68;89.24;101854.38;5024361;28;20084;-78
2021/12/22 06:14:47;;;;;;;47.10;25.03;;;;;;;-2.71;90.24;101849.03;5026421;28;20037;-78
2021/12/22 06:17:13;;;;;;;52.80;25.00;;;;;;;-2.69;90.15;101850.03;5023496;28;20117;-78
2021/12/22 06:19:39;;;;;;;46.30;23.83;;;;;;;-2.66;90.02;101852.81;5025208;28;20045;-78
2021/12/22 06:22:04;;;;;;;40.53;21.77;;;;;;;-2.65;89.94;101852.94;5023744;28;20095;-78
2021/12/22 06:24:30;;;;;;;45.93;18.80;;;;;;;-2.66;90.54;101864.03;5004144;28;20044;-79
2021/12/22 06:26:56;;;;;;;108.90;23.53;;;;;;;-2.63;90.13;101867.63;5027351;28;20073;-79
2021/12/22 06:29:22;;;;;;;96.53;19.00;;;;;;;-2.68;90.15;101868.19;5031748;28;20053;-79
2021/12/22 06:31:47;;;;;;;70.63;17.73;;;;;;;-2.75;90.10;101867.69;5032989;28;20044;-79
2021/12/22 06:34:12;;;;;;;71.50;21.30;;;;;;;-2.81;90.24;101872.44;5030155;28;20087;-79
2021/12/22 06:36:38;;;;;;;71.77;19.57;;;;;;;-2.84;90.17;101879.97;5030544;28;20064;-78
2021/12/22 06:39:04;;;;;;;158.77;22.70;;;;;;;-2.90;89.81;101875.28;5030063;28;20037;-78
2021/12/22 06:41:33;;;;;;;68.17;18.60;;;;;;;-2.94;90.21;101878.44;5029381;28;20059;-78
2021/12/22 06:43:58;;;;;;;75.17;18.33;;;;;;;-2.90;90.83;101877.88;5030326;28;20045;-78
2021/12/22 06:46:24;;;;;;;72.70;16.00;;;;;;;-2.86;91.11;101877.28;5029751;28;20044;-78
2021/12/22 06:48:49;;;;;;;98.93;17.23;;;;;;;-2.85;90.86;101880.78;5028092;28;20041;-78
2021/12/22 06:51:15;;;;;;;86.23;15.70;;;;;;;-2.89;90.17;101882.22;5026987;28;20038;-78
2021/12/22 06:53:40;;;;;;;131.80;17.77;;;;;;;-2.95;90.36;101889.56;5025420;28;20318;-78
2021/12/22 06:56:05;;;;;;;170.47;20.97;;;;;;;-3.01;90.62;101883.94;5016825;28;20037;-78
2021/12/22 06:58:31;;;;;;;58.10;15.57;;;;;;;-3.02;90.44;101887.34;5021467;28;20500;-78
2021/12/22 07:00:57;;;;;;;251.23;22.67;;;;;;;-3.03;90.66;101885.56;5024882;28;20033;-78
2021/12/22 07:03:22;;;;;;;80.80;17.73;;;;;;;-3.08;90.42;101883.53;5022305;28;20176;-78
2021/12/22 07:05:47;;;;;;;38.07;15.13;;;;;;;-3.11;90.62;101888.47;5023874;28;20034;-78
2021/12/22 07:08:13;;;;;;;76.37;19.93;;;;;;;-3.10;91.23;101886.78;5021610;28;20454;-78
2021/12/22 07:10:38;;;;;;;114.03;23.67;;;;;;;-3.12;91.15;101885.78;5023098;28;20044;-78
2021/12/22 07:13:04;;;;;;;46.93;19.03;;;;;;;-3.11;91.04;101888.47;5023736;28;20128;-78
2021/12/22 07:15:30;;;;;;;61.20;20.20;;;;;;;-3.05;90.63;101897.47;5020816;28;20069;-78
2021/12/22 07:17:56;;;;;;;69.70;22.10;;;;;;;-2.99;91.36;101888.44;5024204;28;20483;-78
2021/12/22 07:20:21;;;;;;;50.43;20.43;;;;;;;-2.96;91.07;101895.50;5017141;28;20186;-78
2021/12/22 07:22:48;;;;;;;87.33;24.67;;;;;;;-2.96;91.52;101893.84;5021476;28;20033;-78
2021/12/22 07:25:15;;;;;;;58.33;20.47;;;;;;;-2.97;90.90;101893.72;5024501;28;20125;-78
2021/12/22 07:27:40;;;;;;;50.43;22.33;;;;;;;-3.04;90.68;101894.06;5020844;28;20044;-78
2021/12/22 07:30:07;;;;;;;50.57;22.70;;;;;;;-3.08;89.92;101891.28;5024586;28;20037;-78
2021/12/22 07:32:32;;;;;;;76.87;21.90;;;;;;;-3.06;90.47;101887.94;5021488;28;20060;-78
2021/12/22 07:35:33;;;;;;;39.83;20.33;;;;;;;-3.02;90.00;101897.66;5023253;28;20033;-78
2021/12/22 07:38:35;;;;;;;93.80;23.17;;;;;;;-3.03;90.40;101898.47;5023925;28;20072;-78
2021/12/22 07:41:02;;;;;;;64.13;22.52;;;;;;;-3.11;90.20;101903.97;5021043;28;20034;-78
2021/12/22 07:43:28;;;;;;;56.13;22.63;;;;;;;-3.10;89.95;101900.59;5035934;28;20046;-78
2021/12/22 07:45:54;;;;;;;95.03;24.13;;;;;;;-3.11;90.61;101897.94;5023682;28;20033;-78
2021/12/22 07:48:20;;;;;;;40.23;22.07;;;;;;;-3.10;90.06;101904.88;5025768;28;20068;-78
2021/12/22 07:50:45;;;;;;;45.97;21.77;;;;;;;-3.14;89.57;101892.56;5022083;28;20108;-78
2021/12/22 07:53:11;;;;;;;47.50;23.13;;;;;;;-3.11;90.00;101903.09;5023054;28;20037;-78
2021/12/22 07:55:37;;;;;;;47.20;24.33;;;;;;;-3.12;89.74;101899.63;5020691;28;20467;-78
2021/12/22 07:58:02;;;;;;;52.40;24.17;;;;;;;-3.13;89.92;101905.56;5021815;28;20192;-78
2021/12/22 08:00:28;;;;;;;48.27;24.23;;;;;;;-3.08;90.19;101909.34;5022173;28;20034;-78
2021/12/22 08:02:54;;;;;;;42.23;22.27;;;;;;;-2.99;90.59;101908.22;5021318;28;20495;-78
2021/12/22 08:05:19;;;;;;;42.50;22.17;;;;;;;-2.95;90.41;101898.22;5022195;28;20041;-78
2021/12/22 08:07:44;;;;;;;41.13;22.23;;;;;;;-2.90;89.61;101904.59;5015975;28;20403;-79
2021/12/22 08:10:10;;;;;;;47.93;23.03;;;;;;;-2.87;90.03;101901.31;5020121;28;20499;-78
2021/12/22 08:12:35;;;;;;;43.27;22.57;;;;;;;-2.88;89.72;101904.72;5023959;28;20514;-78
2021/12/22 08:15:01;;;;;;;47.23;24.77;;;;;;;-2.85;89.94;101909.19;5019691;28;20038;-78
2021/12/22 08:17:27;;;;;;;43.80;23.57;;;;;;;-2.82;89.26;101906.81;5026759;28;20033;-78
2021/12/22 08:19:53;;;;;;;48.47;24.67;;;;;;;-2.75;89.64;101904.78;5020617;28;20144;-78
2021/12/22 08:22:19;;;;;;;45.87;24.67;;;;;;;-2.68;89.58;101906.97;5034484;28;20569;-78
2021/12/22 08:24:45;;;;;;;53.90;27.60;;;;;;;-2.63;89.37;101907.28;5022111;28;20126;-78
2021/12/22 08:27:10;;;;;;;47.33;25.23;;;;;;;-2.59;89.15;101906.72;5019315;28;20451;-76
2021/12/22 08:29:41;;;;;;;48.33;26.57;;;;;;;-2.61;88.13;101912.59;5019750;28;20095;-78
2021/12/22 08:32:07;;;;;;;53.53;26.07;;;;;;;-2.60;88.44;101904.03;5029361;28;20128;-79
2021/12/22 08:34:37;;;;;;;53.17;27.23;;;;;;;-2.52;89.58;101905.44;5027516;28;20726;-78
2021/12/22 08:39:47;;;;;;;52.33;26.30;;;;;;;-2.45;89.26;101905.97;5019065;28;20038;-78
2021/12/22 08:42:12;;;;;;;50.40;27.23;;;;;;;-2.41;89.23;101904.50;5022559;28;20046;-78
2021/12/22 08:44:38;;;;;;;46.43;24.30;;;;;;;-2.28;89.46;101909.72;5020970;28;20050;-79
2021/12/22 08:47:03;;;;;;;40.67;23.53;;;;;;;-2.15;89.42;101905.34;5022621;28;20045;-78
2021/12/22 08:49:29;;;;;;;39.10;21.93;;;;;;;-2.03;90.06;101901.91;5021599;28;20048;-78
2021/12/22 08:51:54;;;;;;;45.87;26.07;;;;;;;-1.94;89.81;101901.59;5021669;28;20045;-78
2021/12/22 08:54:20;;;;;;;42.40;22.70;;;;;;;-1.84;89.74;101898.81;5025557;28;20384;-79
2021/12/22 08:56:46;;;;;;;38.60;21.27;;;;;;;-1.75;89.41;101902.84;5024874;28;20491;-78
2021/12/22 08:59:12;;;;;;;36.40;20.93;;;;;;;-1.68;89.67;101894.66;5020683;28;20037;-78
2021/12/22 09:01:38;;;;;;;32.20;18.33;;;;;;;-1.58;89.22;101887.56;5027125;28;20043;-78
2021/12/22 09:04:03;;;;;;;39.77;21.87;;;;;;;-1.47;88.61;101888.25;5019507;28;20029;-78
2021/12/22 09:06:29;;;;;;;32.43;20.00;;;;;;;-1.36;88.58;101889.88;5023814;28;20077;-78
2021/12/22 09:08:55;;;;;;;36.80;21.20;;;;;;;-1.26;89.00;101901.69;5027119;28;20045;-78
2021/12/22 09:11:22;;;;;;;35.10;20.30;;;;;;;-1.14;88.65;101891.22;5024445;28;20034;-78
2021/12/22 09:13:47;;;;;;;32.03;20.43;;;;;;;-1.06;88.48;101884.81;5026442;28;20039;-78
2021/12/22 09:16:13;;;;;;;29.63;19.27;;;;;;;-0.98;87.84;101888.78;5024755;28;20108;-79
2021/12/22 09:18:40;;;;;;;29.93;19.40;;;;;;;-0.89;87.25;101894.53;5030360;28;20061;-79
2021/12/22 09:21:08;;;;;;;32.20;20.07;;;;;;;-0.79;87.13;101895.09;5030568;28;20703;-78
2021/12/22 09:23:33;;;;;;;30.43;19.37;;;;;;;-0.70;87.35;101890.50;5025470;28;20249;-78
2021/12/22 09:25:59;;;;;;;29.60;19.40;;;;;;;-0.58;87.08;101887.72;5023951;28;20494;-78
2021/12/22 09:28:24;;;;;;;32.20;20.63;;;;;;;-0.52;86.35;101883.81;5023153;28;20480;-79
2021/12/22 09:30:50;;;;;;;31.23;21.13;;;;;;;-0.43;86.94;101890.38;5024784;28;20446;-78
2021/12/22 09:33:18;;;;;;;33.60;21.23;;;;;;;-0.36;86.05;101884.75;5022629;28;20483;-78
2021/12/22 09:35:45;;;;;;;32.70;19.17;;;;;;;-0.27;85.64;101883.56;5023672;28;20033;-79
2021/12/22 09:38:11;;;;;;;27.27;17.93;;;;;;;-0.24;84.87;101877.66;5023592;28;20041;-78
2021/12/22 09:40:37;;;;;;;29.27;18.93;;;;;;;-0.16;84.76;101878.13;5025642;28;20132;-78
2021/12/22 09:43:03;;;;;;;31.10;20.63;;;;;;;-0.11;85.23;101875.00;5023902;28;20037;-78
2021/12/22 09:45:29;;;;;;;25.33;17.30;;;;;;;-0.03;84.30;101868.56;5030074;28;20050;-78
2021/12/22 09:53:26;;;;;;;31.10;19.83;;;;;;;0.04;83.39;101858.53;4963249;28;20085;-78
2021/12/22 09:55:52;;;;;;;29.83;19.50;;;;;;;0.10;83.62;101856.28;5030654;28;20053;-78
2021/12/22 09:58:18;;;;;;;30.07;20.90;;;;;;;0.12;82.58;101852.06;5023066;28;20155;-78
2021/12/22 10:00:44;;;;;;;29.80;18.87;;;;;;;0.18;83.20;101848.16;5028959;28;20144;-78
2021/12/22 10:03:11;;;;;;;32.97;20.33;;;;;;;0.22;82.94;101844.00;5027597;28;20046;-79
2021/12/22 10:05:38;;;;;;;31.93;21.90;;;;;;;0.30;82.56;101841.84;5028947;28;20488;-78
2021/12/22 10:08:20;;;;;;;34.10;19.80;;;;;;;0.39;82.80;101843.28;5023901;28;20064;-78
2021/12/22 10:10:48;;;;;;;33.03;21.13;;;;;;;0.41;81.59;101841.63;5021892;28;20038;-78
2021/12/22 10:13:16;;;;;;;30.60;19.77;;;;;;;0.41;80.99;101836.44;5028462;28;20037;-78
2021/12/22 10:15:43;;;;;;;32.87;21.63;;;;;;;0.30;79.51;101837.53;5027441;28;20037;-79
2021/12/22 10:18:14;;;;;;;31.33;21.20;;;;;;;0.40;80.41;101837.25;5022065;28;20050;-79
2021/12/22 10:20:42;;;;;;;34.17;22.57;;;;;;;0.47;80.45;101840.19;5026547;28;20514;-79
2021/12/22 10:23:40;;;;;;;35.33;21.67;;;;;;;0.53;79.33;101843.13;5024476;28;20065;-78
2021/12/22 10:26:09;;;;;;;29.70;20.50;;;;;;;0.63;79.00;101840.25;5014527;28;20150;-78
2021/12/22 10:28:48;;;;;;;33.37;21.03;;;;;;;0.66;79.10;101837.81;5024444;28;20116;-78
2021/12/22 10:31:15;;;;;;;29.50;20.27;;;;;;;0.69;79.31;101837.09;5024126;28;20057;-79
2021/12/22 10:33:43;;;;;;;27.60;19.87;;;;;;;0.72;78.11;101838.13;5024221;28;20029;-78
2021/12/22 10:36:11;;;;;;;28.30;19.50;;;;;;;0.78;78.66;101833.25;5023144;28;20026;-78
2021/12/22 10:38:37;;;;;;;28.03;17.77;;;;;;;0.83;78.92;101826.59;5024390;28;20033;-78
2021/12/22 10:41:06;;;;;;;28.25;19.45;;;;;;;0.86;78.40;101826.78;5022985;28;20064;-79
2021/12/22 10:43:34;;;;;;;28.10;19.70;;;;;;;0.85;78.34;101819.78;5023438;28;20088;-78
2021/12/22 10:46:04;;;;;;;30.77;20.03;;;;;;;0.86;77.63;101818.06;5024031;28;20068;-78
2021/12/22 10:51:26;;;;;;;28.30;18.57;;;;;;;1.06;76.98;101813.94;5021995;28;20124;-78
2021/12/22 10:53:53;;;;;;;28.37;17.83;;;;;;;1.02;76.74;101812.91;5024204;28;20037;-76
2021/12/22 10:56:33;;;;;;;24.37;17.50;;;;;;;1.10;76.37;101805.47;5021183;28;20133;-76
2021/12/22 10:59:08;;;;;;;26.67;17.75;;;;;;;1.15;76.14;101809.22;5019116;28;20029;-76
2021/12/22 11:01:36;;;;;;;32.03;20.52;;;;;;;1.11;76.38;101802.09;5026664;28;20044;-78
2021/12/22 11:04:06;;;;;;;27.35;17.50;;;;;;;1.19;76.16;101805.97;5023730;28;20041;-78
2021/12/22 11:06:37;;;;;;;27.38;17.83;;;;;;;1.18;75.21;101804.19;5024604;28;20038;-79
2021/12/22 11:09:13;;;;;;;27.25;17.55;;;;;;;1.24;74.95;101798.41;5022415;28;20056;-76
2021/12/22 11:11:42;;;;;;;27.25;16.92;;;;;;;1.30;75.30;101799.63;5021173;28;20223;-76
2021/12/22 11:14:09;;;;;;;26.83;17.45;;;;;;;1.38;75.65;101796.53;5022807;28;20037;-76
2021/12/22 11:17:01;;;;;;;23.42;16.30;;;;;;;1.46;74.26;101792.59;5020935;28;20095;-75
2021/12/22 11:19:35;;;;;;;21.80;15.32;;;;;;;1.52;74.82;101792.94;5020302;28;20517;-76
2021/12/22 11:22:11;;;;;;;22.65;16.50;;;;;;;1.48;74.42;101791.88;5022221;28;20045;-78
2021/12/22 11:24:42;;;;;;;22.70;16.88;;;;;;;1.58;74.84;101784.53;5026149;28;20044;-75
2021/12/22 11:27:10;;;;;;;25.08;17.60;;;;;;;1.51;74.36;101789.41;5029921;28;20446;-76
2021/12/22 11:29:38;;;;;;;22.20;16.00;;;;;;;1.58;74.41;101794.94;5031048;28;20511;-75
2021/12/22 11:32:05;;;;;;;20.00;14.80;;;;;;;1.58;74.00;101782.81;5029954;28;20021;-75
2021/12/22 11:34:35;;;;;;;21.20;14.43;;;;;;;1.65;74.15;101784.00;5029560;28;20064;-75
2021/12/22 11:37:03;;;;;;;21.88;14.93;;;;;;;1.68;73.95;101782.47;5030844;28;20128;-76